Askew, Mississippi
Current Conditions -  °F | °C
As of 2:15 AM on Tuesday 21 Oct 2014 (Local Time) from KUTA Reporting Station
Moderate Fog Moderate Fog  
Wind Chill: 52°   Ceiling: 500
Heat Index: 52°   Visibility: 0.5mi
Dew Point: 50°   Wind: 0mph
Humidity: 94%   Direction: NA
Pressure: 30.05"   Gusts: NA
Location:  34.441°N, 90.1719°W
Report Text: KUTA 210715Z AUTO 00000KT 1/2SM FG VV005 11/10 A3005 RMK AO2
Loading
Personal Weather Stations






























Interactive Weather Map
Tropical Storm Tracking
New forecast layout! Learn more

10-Day Weather Forecast

Advertisements
Track Severe Weather on mobile